Aline, OK

12:37 AM CDT on July 31, 2014 (GMT -0500)
Enid (KWDG) Elev 1168 ft | 36.38 °N, 97.79 °W | Change Station

Current weather conditions updated 22 minutes ago

Overcast
Overcast
66 °F
Feels Like 66 °F
N
8
Wind Variable Wind from NNE

Today is forecast to be Much Warmer than yesterday.

Today
High -- | Low -- °F
--% Chance of Precip.
Yesterday
High -- | Low -- °F
Precip. -- in
6:39 AM 8:40 PM
Waxing Crescent, 16% visible
Pressure 30.09 in
Visibility 10.0 miles
Clouds Mostly Cloudy 800 ft
Mostly Cloudy 1600 ft
Overcast 2100 ft
Dew Point 66 °F
Humidity 100%
Rainfall 0.00 in
Snow Depth Not available.
UV 0 out of 12
Pollen .70 out of 12
Air Quality Not available.
Flu Activity Not available.
METAR KWDG 310515Z AUTO 03007KT 335V045 10SM BKN008 BKN016 OVC021 19/19 A3009 RMK AO2

More Conditions Fewer Conditions

Pressure 30.09 in
Visibility 10.0 miles
Clouds Mostly Cloudy 800 ft
Mostly Cloudy 1600 ft
Overcast 2100 ft
Dew Point 66 °F
Humidity 100%
Rainfall 0.00 in
Snow Depth Not available.
UV 0 out of 12
Pollen .70 out of 12
Air Quality Not available.
Flu Activity Not available.
METAR KWDG 310515Z AUTO 03007KT 335V045 10SM BKN008 BKN016 OVC021 19/19 A3009 RMK AO2

More Conditions Fewer Conditions

10-Day Weather Forecast

Almanac

Astronomy

Jul. 31, 2014 Rise Set
Actual Time 6:39 AM CDT 8:40 PM CDT
Civil Twilight 6:10 AM CDT 9:09 PM CDT
Nautical Twilight 5:35 AM CDT 9:43 PM CDT
Astronomical Twilight 4:58 AM CDT 10:21 PM CDT
Moon 10:59 AM CDT 11:03 PM CDT
Length of Visible Light 14h 58m
Length of Day
14h 01m
Tomorrow will be 1m 44s shorter.
Waxing Crescent, 16% of the Moon is Illuminated
Today
Waxing Crescent
Aug 3
First Quarter
Aug 10
Full
Aug 17
Last Quarter
Aug 25
New

Today's Extremes

State Highs State Lows

Community

WunderPhotos

Upload Photos

1,739,248 photos uploaded!

Nearby

Snow Depth

Station Depth Elevation
No new snow has been reported.

Earthquake Activity

City Distance Mag. Time & Date
Caldwell, Kansas 55 miles 3.4 5:57 AM CDT
2014-07-26
Helena, Oklahoma 14 miles 3.3 11:56 PM CDT
2014-07-24
Guthrie, Oklahoma 72 miles 2.7 5:27 AM CDT
2014-07-24
Minimum magnitude displayed is 2.5.

Coastal Water Temperatures

Place Temperature
No Stations Reporting

Nearby Weather Stations

Station Location Temp. Dew Point Humidity Wind Precip. Elev Updated Type
West, Cherokee, OK 65.9 °F 64 °F 93% NE  at  0.0 mph - / hr 1201 ft 12:22 AM CDT Normal
Amateur Radio W5PDB, Jet, OK 66.4 °F 63 °F 90% North  at  - 0.00 in / hr 1280 ft 12:36 AM CDT Rapid Fire
1 block east of NWOSU, Alva, OK 65.7 °F 65 °F 99% North  at  0.0 mph 0.00 in / hr 1458 ft 12:37 AM CDT Rapid Fire

Show More Stations Show Fewer Stations